createdAt,value
2016-05-12T00:00:07.648Z,17.56
2016-05-12T00:00:17.633Z,17.58
2016-05-12T00:00:27.476Z,17.58
2016-05-12T00:00:37.636Z,17.59
2016-05-12T00:00:47.667Z,17.58
2016-05-12T00:00:57.511Z,17.56
2016-05-12T00:01:07.667Z,17.55
2016-05-12T00:01:17.526Z,17.56
2016-05-12T00:01:27.776Z,17.59
2016-05-12T00:01:37.685Z,17.55
2016-05-12T00:01:47.685Z,17.54
2016-05-12T00:01:57.685Z,17.62
2016-05-12T00:02:07.700Z,17.55
2016-05-12T00:02:17.700Z,17.56
2016-05-12T00:02:27.716Z,17.59
2016-05-12T00:02:37.719Z,17.56
2016-05-12T00:02:47.719Z,17.54
2016-05-12T00:02:57.734Z,17.52
2016-05-12T00:03:07.734Z,17.55
2016-05-12T00:03:17.734Z,17.56
2016-05-12T00:03:27.594Z,17.54
2016-05-12T00:03:37.753Z,17.59
2016-05-12T00:03:47.769Z,17.56
2016-05-12T00:03:57.612Z,17.58
2016-05-12T00:04:07.769Z,17.58
2016-05-12T00:04:17.784Z,17.54
2016-05-12T00:04:27.800Z,17.59
2016-05-12T00:04:37.786Z,17.54
2016-05-12T00:04:47.802Z,17.59
2016-05-12T00:04:57.646Z,17.55
2016-05-12T00:05:07.802Z,17.54
2016-05-12T00:05:17.833Z,17.62
2016-05-12T00:05:27.818Z,17.56
2016-05-12T00:05:37.664Z,17.55
2016-05-12T00:05:47.836Z,17.56
2016-05-12T00:05:57.836Z,17.54
2016-05-12T00:06:07.836Z,17.58
2016-05-12T00:06:17.836Z,17.55
2016-05-12T00:06:27.696Z,17.54
2016-05-12T00:06:37.854Z,17.54
2016-05-12T00:06:47.854Z,17.55
2016-05-12T00:06:57.869Z,17.52
2016-05-12T00:07:07.885Z,17.56
2016-05-12T00:07:17.869Z,17.49
2016-05-12T00:07:27.885Z,17.63
2016-05-12T00:07:37.888Z,17.58
2016-05-12T00:07:47.888Z,17.51
2016-05-12T00:07:57.904Z,17.52
2016-05-12T00:08:07.904Z,17.48
2016-05-12T00:08:17.919Z,17.49
2016-05-12T00:08:27.919Z,17.49
2016-05-12T00:08:37.766Z,17.49
2016-05-12T00:08:47.938Z,17.49
2016-05-12T00:08:57.938Z,17.49
2016-05-12T00:09:07.938Z,17.49
2016-05-12T00:09:17.938Z,17.48
2016-05-12T00:09:27.797Z,17.49
2016-05-12T00:09:37.956Z,17.49
2016-05-12T00:09:47.956Z,17.49
2016-05-12T00:09:57.971Z,17.48
2016-05-12T00:10:07.971Z,17.52
2016-05-12T00:10:17.831Z,17.55
2016-05-12T00:10:27.987Z,17.44
2016-05-12T00:10:37.991Z,17.49
2016-05-12T00:10:47.850Z,17.49
2016-05-12T00:10:58.006Z,17.56
2016-05-12T00:11:08.022Z,17.46
2016-05-12T00:11:18.022Z,17.48
2016-05-12T00:11:28.022Z,17.48
2016-05-12T00:11:38.024Z,17.49
2016-05-12T00:11:48.040Z,17.49
2016-05-12T00:11:58.040Z,17.51
2016-05-12T00:12:07.883Z,17.54
2016-05-12T00:12:18.040Z,17.44
2016-05-12T00:12:28.055Z,17.43
2016-05-12T00:12:38.058Z,17.48
2016-05-12T00:12:48.074Z,17.46
2016-05-12T00:12:58.074Z,17.46
2016-05-12T00:13:08.074Z,17.51
2016-05-12T00:13:18.090Z,17.43
2016-05-12T00:13:28.090Z,17.41
2016-05-12T00:13:38.093Z,17.49
2016-05-12T00:13:48.093Z,17.4
2016-05-12T00:13:58.108Z,17.44
2016-05-12T00:14:08.108Z,17.41
2016-05-12T00:14:18.124Z,17.38
2016-05-12T00:14:28.124Z,17.4
2016-05-12T00:14:38.126Z,17.46
2016-05-12T00:14:48.141Z,17.48
2016-05-12T00:14:58.141Z,17.38
2016-05-12T00:15:08.157Z,17.37
2016-05-12T00:15:18.173Z,17.34
2016-05-12T00:15:28.157Z,17.38
2016-05-12T00:15:38.176Z,17.37
2016-05-12T00:15:48.176Z,17.49
2016-05-12T00:15:58.410Z,17.34
2016-05-12T00:16:08.254Z,17.44
2016-05-12T00:16:18.504Z,17.37
2016-05-12T00:16:28.191Z,17.4
2016-05-12T00:16:38.271Z,17.34
2016-05-12T00:16:48.209Z,17.37
2016-05-12T00:16:58.209Z,17.36
2016-05-12T00:17:08.053Z,17.48
2016-05-12T00:17:18.225Z,17.38
2016-05-12T00:17:28.240Z,17.37
2016-05-12T00:17:38.243Z,17.4
2016-05-12T00:17:48.243Z,17.49
2016-05-12T00:17:58.259Z,17.37
2016-05-12T00:18:08.259Z,17.38
2016-05-12T00:18:18.259Z,17.33
2016-05-12T00:18:28.259Z,17.38
2016-05-12T00:18:38.121Z,17.37
2016-05-12T00:18:48.277Z,17.36
2016-05-12T00:18:58.277Z,17.36
2016-05-12T00:19:08.277Z,17.34
2016-05-12T00:19:18.293Z,17.4
2016-05-12T00:19:28.137Z,17.34
2016-05-12T00:19:38.312Z,17.34
2016-05-12T00:19:48.312Z,17.38
2016-05-12T00:19:58.327Z,17.41
2016-05-12T00:20:08.155Z,17.34
2016-05-12T00:20:18.327Z,17.33
2016-05-12T00:20:28.327Z,17.34
2016-05-12T00:20:38.345Z,17.37
2016-05-12T00:20:48.345Z,17.3
2016-05-12T00:20:58.345Z,17.38
2016-05-12T00:21:08.204Z,17.4
2016-05-12T00:21:18.204Z,17.41
2016-05-12T00:21:28.361Z,17.38
2016-05-12T00:21:38.379Z,17.34
2016-05-12T00:21:48.379Z,17.4
2016-05-12T00:21:58.379Z,17.4
2016-05-12T00:22:08.395Z,17.38
2016-05-12T00:22:18.395Z,17.4
2016-05-12T00:22:28.489Z,17.4
2016-05-12T00:22:38.412Z,17.38
2016-05-12T00:22:48.412Z,17.28
2016-05-12T00:22:58.412Z,17.37
2016-05-12T00:23:08.428Z,17.37
2016-05-12T00:23:18.428Z,17.36
2016-05-12T00:23:28.444Z,17.34
2016-05-12T00:23:38.448Z,17.33
2016-05-12T00:23:48.448Z,17.36
2016-05-12T00:23:58.448Z,17.37
2016-05-12T00:24:08.463Z,17.36
2016-05-12T00:24:18.463Z,17.34
2016-05-12T00:24:28.338Z,17.37
2016-05-12T00:24:38.498Z,17.37
2016-05-12T00:24:48.482Z,17.31
2016-05-12T00:24:58.341Z,17.37
2016-05-12T00:25:08.498Z,17.36
2016-05-12T00:25:18.341Z,17.36
2016-05-12T00:25:28.529Z,17.3
2016-05-12T00:25:38.515Z,17.28
2016-05-12T00:25:48.515Z,17.33
2016-05-12T00:25:58.515Z,17.28
2016-05-12T00:26:08.531Z,17.37
2016-05-12T00:26:18.546Z,17.28
2016-05-12T00:26:28.375Z,17.34
2016-05-12T00:26:38.392Z,17.3
2016-05-12T00:26:48.548Z,17.34
2016-05-12T00:26:58.548Z,17.28
2016-05-12T00:27:08.564Z,17.33
2016-05-12T00:27:18.564Z,17.36
2016-05-12T00:27:28.580Z,17.26
2016-05-12T00:27:38.583Z,17.4
2016-05-12T00:27:48.426Z,17.34
2016-05-12T00:27:58.473Z,17.34
2016-05-12T00:28:08.598Z,17.31
2016-05-12T00:28:18.614Z,17.33
2016-05-12T00:28:28.458Z,17.33
2016-05-12T00:28:38.475Z,17.34
2016-05-12T00:28:48.460Z,17.31
2016-05-12T00:28:58.632Z,17.38
2016-05-12T00:29:08.632Z,17.28
2016-05-12T00:29:18.632Z,17.28
2016-05-12T00:29:28.647Z,17.37
2016-05-12T00:29:38.650Z,17.31
2016-05-12T00:29:48.650Z,17.31
2016-05-12T00:29:58.666Z,17.28
2016-05-12T00:30:08.666Z,17.28
2016-05-12T00:30:18.666Z,17.34
2016-05-12T00:30:28.697Z,17.28
2016-05-12T00:30:38.700Z,17.36
2016-05-12T00:30:48.684Z,17.3
2016-05-12T00:30:58.544Z,17.28
2016-05-12T00:31:08.841Z,17.31
2016-05-12T00:31:18.794Z,17.31
2016-05-12T00:31:28.716Z,17.34
2016-05-12T00:31:38.562Z,17.22
2016-05-12T00:31:48.719Z,17.26
2016-05-12T00:31:58.719Z,17.33
2016-05-12T00:32:08.578Z,17.28
2016-05-12T00:32:18.734Z,17.34
2016-05-12T00:32:28.594Z,17.3
2016-05-12T00:32:38.753Z,17.26
2016-05-12T00:32:48.769Z,17.31
2016-05-12T00:32:58.769Z,17.22
2016-05-12T00:33:08.769Z,17.3
2016-05-12T00:33:18.769Z,17.33
2016-05-12T00:33:28.784Z,17.3
2016-05-12T00:33:38.786Z,17.36
2016-05-12T00:33:48.786Z,17.26
2016-05-12T00:33:58.802Z,17.28
2016-05-12T00:34:08.802Z,17.28
2016-05-12T00:34:18.802Z,17.31
2016-05-12T00:34:28.817Z,17.36
2016-05-12T00:34:38.820Z,17.34
2016-05-12T00:34:48.664Z,17.36
2016-05-12T00:34:58.836Z,17.28
2016-05-12T00:35:08.836Z,17.34
2016-05-12T00:35:18.852Z,17.31
2016-05-12T00:35:28.852Z,17.33
2016-05-12T00:35:38.855Z,17.25
2016-05-12T00:35:48.870Z,17.36
2016-05-12T00:35:58.714Z,17.3
2016-05-12T00:36:08.886Z,17.28
2016-05-12T00:36:18.870Z,17.31
2016-05-12T00:36:28.886Z,17.3
2016-05-12T00:36:38.888Z,17.31
2016-05-12T00:36:48.888Z,17.31
2016-05-12T00:36:58.904Z,17.26
2016-05-12T00:37:08.919Z,17.36
2016-05-12T00:37:18.904Z,17.28
2016-05-12T00:37:28.763Z,17.31
2016-05-12T00:37:38.938Z,17.18
2016-05-12T00:37:48.922Z,17.26
2016-05-12T00:37:58.938Z,17.28
2016-05-12T00:38:08.938Z,17.3
2016-05-12T00:38:18.953Z,17.21
2016-05-12T00:38:28.797Z,17.19
2016-05-12T00:38:38.956Z,17.18
2016-05-12T00:38:48.816Z,17.28
2016-05-12T00:38:58.972Z,17.26
2016-05-12T00:39:08.988Z,17.19
2016-05-12T00:39:18.988Z,17.21
2016-05-12T00:39:28.831Z,17.28
2016-05-12T00:39:38.991Z,17.28
2016-05-12T00:39:49.006Z,17.18
2016-05-12T00:39:59.006Z,17.18
2016-05-12T00:40:09.006Z,17.33
2016-05-12T00:40:18.866Z,17.18
2016-05-12T00:40:29.022Z,17.22
2016-05-12T00:40:39.024Z,17.18
2016-05-12T00:40:49.040Z,17.3
2016-05-12T00:40:59.040Z,17.18
2016-05-12T00:41:09.040Z,17.19
2016-05-12T00:41:19.055Z,17.15
2016-05-12T00:41:29.055Z,17.25
2016-05-12T00:41:39.058Z,17.22
2016-05-12T00:41:49.074Z,17.18
2016-05-12T00:41:59.074Z,17.16
2016-05-12T00:42:09.089Z,17.25
2016-05-12T00:42:19.074Z,17.19
2016-05-12T00:42:29.089Z,17.18
2016-05-12T00:42:38.935Z,17.19
2016-05-12T00:42:49.107Z,17.18
2016-05-12T00:42:59.123Z,17.19
2016-05-12T00:43:09.107Z,17.19
2016-05-12T00:43:19.123Z,17.21
2016-05-12T00:43:29.123Z,17.21
2016-05-12T00:43:39.126Z,17.19
2016-05-12T00:43:49.141Z,17.19
2016-05-12T00:43:59.141Z,17.19
2016-05-12T00:44:09.157Z,17.21
2016-05-12T00:44:19.157Z,17.15
2016-05-12T00:44:29.157Z,17.19
2016-05-12T00:44:39.018Z,17.21
2016-05-12T00:44:49.050Z,17.19
2016-05-12T00:44:59.190Z,17.21
2016-05-12T00:45:09.175Z,17.25
2016-05-12T00:45:19.237Z,17.19
2016-05-12T00:45:29.190Z,17.23
2016-05-12T00:45:39.193Z,17.23
2016-05-12T00:45:49.131Z,17.22
2016-05-12T00:45:59.053Z,17.22
2016-05-12T00:46:09.209Z,17.25
2016-05-12T00:46:19.521Z,17.16
2016-05-12T00:46:29.224Z,17.21
2016-05-12T00:46:39.228Z,17.15
2016-05-12T00:46:49.088Z,17.19
2016-05-12T00:46:59.244Z,17.22
2016-05-12T00:47:09.244Z,17.22
2016-05-12T00:47:19.260Z,17.22
2016-05-12T00:47:29.260Z,17.14
2016-05-12T00:47:39.262Z,17.21
2016-05-12T00:47:49.277Z,17.18
2016-05-12T00:47:59.277Z,17.22
2016-05-12T00:48:09.277Z,17.19
2016-05-12T00:48:19.293Z,17.22
2016-05-12T00:48:29.293Z,17.23
2016-05-12T00:48:39.296Z,17.22
2016-05-12T00:48:49.312Z,17.21
2016-05-12T00:48:59.312Z,17.21
2016-05-12T00:49:09.312Z,17.21
2016-05-12T00:49:19.327Z,17.18
2016-05-12T00:49:29.327Z,17.21
2016-05-12T00:49:39.345Z,17.21
2016-05-12T00:49:49.345Z,17.21
2016-05-12T00:49:59.345Z,17.19
2016-05-12T00:50:09.360Z,17.16
2016-05-12T00:50:19.360Z,17.19
2016-05-12T00:50:29.376Z,17.23
2016-05-12T00:50:39.379Z,17.12
2016-05-12T00:50:49.379Z,17.19
2016-05-12T00:50:59.379Z,17.16
2016-05-12T00:51:09.379Z,17.21
2016-05-12T00:51:19.395Z,17.14
2016-05-12T00:51:29.395Z,17.22
2016-05-12T00:51:39.412Z,17.22
2016-05-12T00:51:49.412Z,17.22
2016-05-12T00:51:59.256Z,17.22
2016-05-12T00:52:09.428Z,17.25
2016-05-12T00:52:19.428Z,17.22
2016-05-12T00:52:29.428Z,17.19
2016-05-12T00:52:39.431Z,17.04
2016-05-12T00:52:49.447Z,17.21
2016-05-12T00:52:59.447Z,17.07
2016-05-12T00:53:09.478Z,17.06
2016-05-12T00:53:19.462Z,17.04
2016-05-12T00:53:29.462Z,17.06
2016-05-12T00:53:39.481Z,17.11
2016-05-12T00:53:49.481Z,17.16
2016-05-12T00:53:59.481Z,17.22
2016-05-12T00:54:09.481Z,17.16
2016-05-12T00:54:19.496Z,17.21
2016-05-12T00:54:29.496Z,17.21
2016-05-12T00:54:39.499Z,17.04
2016-05-12T00:54:49.515Z,17.23
2016-05-12T00:54:59.515Z,17.21
2016-05-12T00:55:09.374Z,17.12
2016-05-12T00:55:19.374Z,17.18
2016-05-12T00:55:29.531Z,17.18
2016-05-12T00:55:39.548Z,17.22
2016-05-12T00:55:49.548Z,17.21
2016-05-12T00:55:59.548Z,17.18
2016-05-12T00:56:09.564Z,17.22
2016-05-12T00:56:19.408Z,17.16
2016-05-12T00:56:29.564Z,17.25
2016-05-12T00:56:39.583Z,17.15
2016-05-12T00:56:49.583Z,17.22
2016-05-12T00:56:59.442Z,17.19
2016-05-12T00:57:09.598Z,17.21
2016-05-12T00:57:19.598Z,17.11
2016-05-12T00:57:29.598Z,17.19
2016-05-12T00:57:39.461Z,17.21
2016-05-12T00:57:49.617Z,17.23
2016-05-12T00:57:59.632Z,17.21
2016-05-12T00:58:09.632Z,17.22
2016-05-12T00:58:19.632Z,17.22
2016-05-12T00:58:29.648Z,17.18
2016-05-12T00:58:39.667Z,17.08
2016-05-12T00:58:49.651Z,17.14
2016-05-12T00:58:59.667Z,17.19
2016-05-12T00:59:09.667Z,17.18
2016-05-12T00:59:19.667Z,17.11
2016-05-12T00:59:29.682Z,17.22
2016-05-12T00:59:39.684Z,17.25
2016-05-12T00:59:49.684Z,17.18
2016-05-12T00:59:59.700Z,17.23
2016-05-12T01:00:09.700Z,17.23
2016-05-12T01:00:19.716Z,17.22
2016-05-12T01:00:29.700Z,17.19
2016-05-12T01:00:39.718Z,17.07
2016-05-12T01:00:49.718Z,17.15
2016-05-12T01:00:59.749Z,17.21
2016-05-12T01:01:09.733Z,17.25
2016-05-12T01:01:19.577Z,17.25
2016-05-12T01:01:30.608Z,17.19
2016-05-12T01:01:39.768Z,17.03
2016-05-12T01:01:49.753Z,17.11
2016-05-12T01:01:59.612Z,17.25
2016-05-12T01:02:09.768Z,17.21
2016-05-12T01:02:19.768Z,17.16
2016-05-12T01:02:29.628Z,17.11
2016-05-12T01:02:39.787Z,17.18
2016-05-12T01:02:49.787Z,17.16
2016-05-12T01:02:59.787Z,17.04
2016-05-12T01:03:09.803Z,17.21
2016-05-12T01:03:19.646Z,17.23
2016-05-12T01:03:29.662Z,17.22
2016-05-12T01:03:39.820Z,17.21
2016-05-12T01:03:49.820Z,17.22
2016-05-12T01:03:59.836Z,17.25
2016-05-12T01:04:09.836Z,17.15
2016-05-12T01:04:19.836Z,17.21
2016-05-12T01:04:29.836Z,17.26
2016-05-12T01:04:39.854Z,17.18
2016-05-12T01:04:49.854Z,17.26
2016-05-12T01:04:59.854Z,17.18
2016-05-12T01:05:09.869Z,17.19
2016-05-12T01:05:19.869Z,17.19
2016-05-12T01:05:29.885Z,17.19
2016-05-12T01:05:39.888Z,17.15
2016-05-12T01:05:49.888Z,17.22
2016-05-12T01:05:59.903Z,17.16
2016-05-12T01:06:09.903Z,17.19
2016-05-12T01:06:19.903Z,17.16
2016-05-12T01:06:29.903Z,17.19
2016-05-12T01:06:39.922Z,17.19
2016-05-12T01:06:49.922Z,17.22
2016-05-12T01:06:59.938Z,17.22
2016-05-12T01:07:09.938Z,17.18
2016-05-12T01:07:19.938Z,17.16
2016-05-12T01:07:29.953Z,17.19
2016-05-12T01:07:39.956Z,17.21
2016-05-12T01:07:49.972Z,17.18
2016-05-12T01:07:59.816Z,17.22
2016-05-12T01:08:09.972Z,17.18
2016-05-12T01:08:19.972Z,17.19
2016-05-12T01:08:29.972Z,17.18
2016-05-12T01:08:39.991Z,17.25
2016-05-12T01:08:49.834Z,17.22
2016-05-12T01:08:59.991Z,17.25
2016-05-12T01:09:10.006Z,17.22
2016-05-12T01:09:20.006Z,17.26
2016-05-12T01:09:30.022Z,17.22
2016-05-12T01:09:40.024Z,17.25
2016-05-12T01:09:50.024Z,17.25
2016-05-12T01:10:00.039Z,17.22
2016-05-12T01:10:10.039Z,17.16
2016-05-12T01:10:20.039Z,17.16
2016-05-12T01:10:30.055Z,17.23
2016-05-12T01:10:40.058Z,17.16
2016-05-12T01:10:50.058Z,17.16
2016-05-12T01:11:00.074Z,17.22
2016-05-12T01:11:10.074Z,17.18
2016-05-12T01:11:20.074Z,17.19
2016-05-12T01:11:29.933Z,17.18
2016-05-12T01:11:40.091Z,17.21
2016-05-12T01:11:50.107Z,17.19
2016-05-12T01:12:00.107Z,17.18
2016-05-12T01:12:09.951Z,17.11
2016-05-12T01:12:20.107Z,17.16
2016-05-12T01:12:30.123Z,17.21
2016-05-12T01:12:40.141Z,17.16
2016-05-12T01:12:50.141Z,17.19
2016-05-12T01:12:59.985Z,17.15
2016-05-12T01:13:10.141Z,17.22
2016-05-12T01:13:20.141Z,17.16
2016-05-12T01:13:30.141Z,17.22
2016-05-12T01:13:40.160Z,17.14
2016-05-12T01:13:50.160Z,17.22
2016-05-12T01:14:00.175Z,17.11
2016-05-12T01:14:10.175Z,17.14
2016-05-12T01:14:20.191Z,17.11
2016-05-12T01:14:30.191Z,17.19
2016-05-12T01:14:40.194Z,17.19
2016-05-12T01:14:50.194Z,17.22
2016-05-12T01:15:00.210Z,17.23
2016-05-12T01:15:10.225Z,17.21
2016-05-12T01:15:20.225Z,17.23
2016-05-12T01:15:30.225Z,17.22
2016-05-12T01:15:40.244Z,17.18
2016-05-12T01:15:50.228Z,17.08
2016-05-12T01:16:00.244Z,17.22
2016-05-12T01:16:10.697Z,17.14
2016-05-12T01:16:20.103Z,17.01
2016-05-12T01:16:30.541Z,17.22
2016-05-12T01:16:40.621Z,17.15
2016-05-12T01:16:50.402Z,17.08
2016-05-12T01:17:00.121Z,17.07
2016-05-12T01:17:10.277Z,17.23
2016-05-12T01:17:20.277Z,17.28
2016-05-12T01:17:30.293Z,17.28
2016-05-12T01:17:40.295Z,17.12
2016-05-12T01:17:50.139Z,17.21
2016-05-12T01:18:00.310Z,17.18
2016-05-12T01:18:10.310Z,17.12
2016-05-12T01:18:20.670Z,17.23
2016-05-12T01:18:30.326Z,17.23
2016-05-12T01:18:40.329Z,17.23
2016-05-12T01:18:50.345Z,17.25
2016-05-12T01:19:00.345Z,17.16
2016-05-12T01:19:10.345Z,17.16
2016-05-12T01:19:20.360Z,17.28
2016-05-12T01:19:30.360Z,17.18
2016-05-12T01:19:40.363Z,17.04
2016-05-12T01:19:50.379Z,17.15
2016-05-12T01:20:00.379Z,17.23
2016-05-12T01:20:10.379Z,17.22
2016-05-12T01:20:20.379Z,17.19
2016-05-12T01:20:30.395Z,17.07
2016-05-12T01:20:40.397Z,17.01
2016-05-12T01:20:50.412Z,17.04
2016-05-12T01:21:00.412Z,17.06
2016-05-12T01:21:10.256Z,17.11
2016-05-12T01:21:20.428Z,17.15
2016-05-12T01:21:30.428Z,17.12
2016-05-12T01:21:40.432Z,17.08
2016-05-12T01:21:50.447Z,17.12
2016-05-12T01:22:00.447Z,17.14
2016-05-12T01:22:10.463Z,17.16
2016-05-12T01:22:20.447Z,17.12
2016-05-12T01:22:30.463Z,17.12
2016-05-12T01:22:40.465Z,17.08
2016-05-12T01:22:50.481Z,17.06
2016-05-12T01:23:00.481Z,17.14
2016-05-12T01:23:10.481Z,17.03
2016-05-12T01:23:20.512Z,17.07
2016-05-12T01:23:30.496Z,17.08
2016-05-12T01:23:40.499Z,17.15
2016-05-12T01:23:50.499Z,17.11
2016-05-12T01:24:00.515Z,17.21
2016-05-12T01:24:10.515Z,17.15
2016-05-12T01:24:20.515Z,17.12
2016-05-12T01:24:30.531Z,17.15
2016-05-12T01:24:40.534Z,17.12
2016-05-12T01:24:50.549Z,17.12
2016-05-12T01:25:00.549Z,17.16
2016-05-12T01:25:10.565Z,17.16
2016-05-12T01:25:20.580Z,17.16
2016-05-12T01:25:30.565Z,17.08
2016-05-12T01:25:40.582Z,17.15
2016-05-12T01:25:50.582Z,17.16
2016-05-12T01:26:00.582Z,17.14
2016-05-12T01:26:10.582Z,17.12
2016-05-12T01:26:20.598Z,17.19
2016-05-12T01:26:30.707Z,17.11
2016-05-12T01:26:40.617Z,17.14
2016-05-12T01:26:50.617Z,17.21
2016-05-12T01:27:00.664Z,17.18
2016-05-12T01:27:10.617Z,17.08
2016-05-12T01:27:20.648Z,17.08
2016-05-12T01:27:30.632Z,17.16
2016-05-12T01:27:40.509Z,17.06
2016-05-12T01:27:50.650Z,17.11
2016-05-12T01:28:00.650Z,17.16
2016-05-12T01:28:10.666Z,17.18
2016-05-12T01:28:20.681Z,17.14
2016-05-12T01:28:30.666Z,17.16
2016-05-12T01:28:40.669Z,17.08
2016-05-12T01:28:50.684Z,17.19
2016-05-12T01:29:00.684Z,17.22
2016-05-12T01:29:10.684Z,17.12
2016-05-12T01:29:20.700Z,17.11
2016-05-12T01:29:30.700Z,17.14
2016-05-12T01:29:40.703Z,17.22
2016-05-12T01:29:50.703Z,17.11
2016-05-12T01:30:00.562Z,17.12
2016-05-12T01:30:10.734Z,17.11
2016-05-12T01:30:20.734Z,17.07
2016-05-12T01:30:30.734Z,17.21
2016-05-12T01:30:40.753Z,17.18
2016-05-12T01:30:50.753Z,17.04
2016-05-12T01:31:00.753Z,17.16
2016-05-12T01:31:10.831Z,17.11
2016-05-12T01:31:21.237Z,17.15
2016-05-12T01:31:30.831Z,17.25
2016-05-12T01:31:40.723Z,17.16
2016-05-12T01:31:51.005Z,17.14
2016-05-12T01:32:00.786Z,17.15
2016-05-12T01:32:10.802Z,17.19
2016-05-12T01:32:20.645Z,17.22
2016-05-12T01:32:30.802Z,17.16
2016-05-12T01:32:40.805Z,17.11
2016-05-12T01:32:59.617Z,17.25
2016-05-12T01:33:09.570Z,17.18
2016-05-12T01:33:19.570Z,17.12
2016-05-12T01:33:29.586Z,17.22
2016-05-12T01:33:39.588Z,17.23
2016-05-12T01:33:49.588Z,17.25
2016-05-12T01:33:59.603Z,17.25
2016-05-12T01:34:09.619Z,17.08
2016-05-12T01:34:19.603Z,17.04
2016-05-12T01:34:29.603Z,17.12
2016-05-12T01:34:39.622Z,17.19
2016-05-12T01:34:49.622Z,17.06
2016-05-12T01:34:59.638Z,17
2016-05-12T01:35:09.638Z,17.16
2016-05-12T01:35:19.638Z,17.11
2016-05-12T01:35:29.653Z,17.22
2016-05-12T01:35:39.656Z,17.07
2016-05-12T01:35:49.656Z,17.18
2016-05-12T01:35:59.672Z,17.23
2016-05-12T01:36:09.672Z,17.19
2016-05-12T01:36:19.672Z,17.08
2016-05-12T01:36:29.703Z,17.07
2016-05-12T01:36:39.691Z,17.21
2016-05-12T01:36:49.706Z,17.14
2016-05-12T01:36:59.706Z,17.04
2016-05-12T01:37:09.706Z,17.11
2016-05-12T01:37:19.706Z,17.14
2016-05-12T01:37:29.722Z,17.22
2016-05-12T01:37:39.725Z,17.21
2016-05-12T01:37:49.740Z,17.23
2016-05-12T01:37:59.584Z,17.16
2016-05-12T01:38:09.740Z,17.19
2016-05-12T01:38:19.740Z,17.18
2016-05-12T01:38:29.756Z,17.22
2016-05-12T01:38:39.758Z,17.07
2016-05-12T01:38:49.758Z,17.14
2016-05-12T01:38:59.758Z,17.04
2016-05-12T01:39:09.774Z,17.21
2016-05-12T01:39:19.633Z,17.21
2016-05-12T01:39:29.789Z,17.21
2016-05-12T01:39:39.636Z,17.22
2016-05-12T01:39:49.652Z,17.16
2016-05-12T01:39:59.808Z,17.15
2016-05-12T01:40:09.808Z,17.26
2016-05-12T01:40:19.808Z,17.22
2016-05-12T01:40:29.824Z,17.22
2016-05-12T01:40:39.826Z,17.26
2016-05-12T01:40:49.685Z,17.23
2016-05-12T01:40:59.841Z,17.22
2016-05-12T01:41:09.841Z,17.08
2016-05-12T01:41:19.841Z,17.22
2016-05-12T01:41:29.857Z,17.3
2016-05-12T01:41:39.861Z,17.14
2016-05-12T01:41:49.876Z,17.23
2016-05-12T01:41:59.876Z,17.25
2016-05-12T01:42:09.876Z,17.23
2016-05-12T01:42:19.736Z,17.21
2016-05-12T01:42:29.892Z,17.18
2016-05-12T01:42:39.910Z,17.26
2016-05-12T01:42:49.894Z,17.12
2016-05-12T01:42:59.894Z,17.03
2016-05-12T01:43:09.910Z,17.14
2016-05-12T01:43:19.925Z,17.16
2016-05-12T01:43:29.925Z,17.21
2016-05-12T01:43:39.927Z,17.16
2016-05-12T01:43:49.943Z,17.18
2016-05-12T01:43:59.943Z,17.08
2016-05-12T01:44:09.943Z,17.12
2016-05-12T01:44:19.959Z,17.14
2016-05-12T01:44:29.959Z,17.16
2016-05-12T01:44:39.805Z,17.12
2016-05-12T01:44:49.977Z,17.11
2016-05-12T01:44:59.977Z,17.18
2016-05-12T01:45:09.977Z,17.14
2016-05-12T01:45:19.977Z,17.12
2016-05-12T01:45:29.993Z,17.18
2016-05-12T01:45:39.840Z,17.12
2016-05-12T01:45:50.011Z,17.22
2016-05-12T01:46:00.011Z,17.15
2016-05-12T01:46:10.011Z,17.12
2016-05-12T01:46:20.027Z,17.15
2016-05-12T01:46:30.058Z,17.15
2016-05-12T01:46:40.046Z,17.14
2016-05-12T01:46:50.046Z,17.08
2016-05-12T01:47:00.046Z,17.12
2016-05-12T01:47:10.046Z,17.08
2016-05-12T01:47:20.046Z,17.11
2016-05-12T01:47:29.921Z,17.11
2016-05-12T01:47:40.063Z,17.18
2016-05-12T01:47:50.079Z,17.08
2016-05-12T01:48:00.079Z,17.07
2016-05-12T01:48:10.079Z,17.06
2016-05-12T01:48:20.095Z,17.08
2016-05-12T01:48:30.095Z,17.08
2016-05-12T01:48:40.098Z,17.19
2016-05-12T01:48:50.113Z,17.16
2016-05-12T01:49:00.113Z,17.15
2016-05-12T01:49:10.113Z,17.12
2016-05-12T01:49:20.129Z,17.16
2016-05-12T01:49:30.129Z,17.18
2016-05-12T01:49:40.132Z,17.11
2016-05-12T01:49:50.147Z,17.11
2016-05-12T01:50:00.163Z,17.14
2016-05-12T01:50:10.163Z,17.06
2016-05-12T01:50:20.163Z,17.14
2016-05-12T01:50:30.179Z,17.08
2016-05-12T01:50:40.165Z,17.11
2016-05-12T01:50:50.181Z,17.11
2016-05-12T01:51:00.181Z,17.07
2016-05-12T01:51:10.181Z,17.11
2016-05-12T01:51:20.196Z,17.12
2016-05-12T01:51:30.196Z,17.08
2016-05-12T01:51:40.199Z,17.11
2016-05-12T01:51:50.215Z,17.11
2016-05-12T01:52:00.215Z,17.11
2016-05-12T01:52:10.215Z,17.07
2016-05-12T01:52:20.231Z,17.11
2016-05-12T01:52:30.246Z,17.07
2016-05-12T01:52:40.077Z,17.11
2016-05-12T01:52:50.249Z,17.07
2016-05-12T01:53:00.249Z,17.07
2016-05-12T01:53:10.359Z,17.15
2016-05-12T01:53:20.265Z,17.07
2016-05-12T01:53:30.265Z,17.07
2016-05-12T01:53:40.267Z,17.04
2016-05-12T01:53:50.282Z,17.07
2016-05-12T01:54:00.282Z,17.08
2016-05-12T01:54:10.298Z,17.12
2016-05-12T01:54:20.298Z,17.06
2016-05-12T01:54:30.298Z,17.04
2016-05-12T01:54:40.301Z,17.15
2016-05-12T01:54:50.317Z,17.06
2016-05-12T01:55:00.317Z,17.11
2016-05-12T01:55:10.332Z,17.12
2016-05-12T01:55:20.332Z,17.07
2016-05-12T01:55:30.348Z,17.12
2016-05-12T01:55:40.351Z,17.07
2016-05-12T01:55:50.351Z,17.08
2016-05-12T01:56:00.210Z,17.07
2016-05-12T01:56:10.210Z,17.03
2016-05-12T01:56:20.476Z,17.11
2016-05-12T01:56:30.492Z,17.01
2016-05-12T01:56:40.307Z,17.07
2016-05-12T01:56:50.479Z,17.04
2016-05-12T01:57:00.495Z,17.14
2016-05-12T01:57:10.463Z,17.03
2016-05-12T01:57:20.338Z,17.12
2016-05-12T01:57:30.510Z,17.06
2016-05-12T01:57:40.497Z,17.08
2016-05-12T01:57:50.528Z,17.08
2016-05-12T01:58:00.512Z,17.04
2016-05-12T01:58:10.528Z,17
2016-05-12T01:58:20.512Z,16.98
2016-05-12T01:58:30.543Z,17.01
2016-05-12T01:58:40.531Z,17
2016-05-12T01:58:50.562Z,17.12
2016-05-12T01:59:00.546Z,16.97
2016-05-12T01:59:10.562Z,16.98
2016-05-12T01:59:20.578Z,17.04
2016-05-12T01:59:30.437Z,16.97
2016-05-12T01:59:40.424Z,17.06
2016-05-12T01:59:50.565Z,17.04
2016-05-12T02:00:00.565Z,17.01
2016-05-12T02:00:10.612Z,17
2016-05-12T02:00:20.581Z,16.98
2016-05-12T02:00:30.596Z,17.04
2016-05-12T02:00:40.598Z,17.04
2016-05-12T02:00:50.567Z,16.96
2016-05-12T02:01:00.520Z,17.01
2016-05-12T02:01:10.536Z,17
2016-05-12T02:01:20.536Z,16.97
2016-05-12T02:01:30.380Z,16.98
2016-05-12T02:01:40.538Z,16.98
2016-05-12T02:01:50.835Z,17
2016-05-12T02:02:00.757Z,16.98
2016-05-12T02:02:10.569Z,17
2016-05-12T02:02:20.413Z,17
2016-05-12T02:02:30.569Z,16.93
2016-05-12T02:02:40.588Z,16.96
2016-05-12T02:02:50.588Z,16.97
2016-05-12T02:03:00.588Z,17
2016-05-12T02:03:10.588Z,16.97
2016-05-12T02:03:20.603Z,16.97
2016-05-12T02:03:30.603Z,16.96
2016-05-12T02:03:40.607Z,16.94
2016-05-12T02:03:50.623Z,17.01
2016-05-12T02:04:00.639Z,16.91
2016-05-12T02:04:10.623Z,16.96
2016-05-12T02:04:20.639Z,16.86
2016-05-12T02:04:30.639Z,16.93
2016-05-12T02:04:40.656Z,16.91
2016-05-12T02:04:50.656Z,16.91
2016-05-12T02:05:00.656Z,16.91
2016-05-12T02:05:10.516Z,16.91
2016-05-12T02:05:20.672Z,16.91
2016-05-12T02:05:30.516Z,16.88
2016-05-12T02:05:40.689Z,16.85
2016-05-12T02:05:50.533Z,16.91
2016-05-12T02:06:00.689Z,16.91
2016-05-12T02:06:10.533Z,16.89
2016-05-12T02:06:20.705Z,16.93
2016-05-12T02:06:30.705Z,16.93
2016-05-12T02:06:40.567Z,16.88
2016-05-12T02:06:50.724Z,16.89
2016-05-12T02:07:00.724Z,16.88
2016-05-12T02:07:10.583Z,16.93
2016-05-12T02:07:20.739Z,16.93
2016-05-12T02:07:30.755Z,16.88
2016-05-12T02:07:40.742Z,16.94
2016-05-12T02:07:50.758Z,16.85
2016-05-12T02:08:00.758Z,16.93
2016-05-12T02:08:10.774Z,16.83
2016-05-12T02:08:20.774Z,16.86
2016-05-12T02:08:30.789Z,16.89
2016-05-12T02:08:40.808Z,16.78
2016-05-12T02:08:50.792Z,16.89
2016-05-12T02:09:00.808Z,16.91
2016-05-12T02:09:10.823Z,16.93
2016-05-12T02:09:20.808Z,16.91